Time;durP1;ratioP1;P1;durP2;ratioP2;P2;SDS_P1;SDS_P2;PMS_P1;PMS_P2;Temp;Humidity;BMP_temperature;BMP_pressure;BME280_temperature;BME280_humidity;BME280_pressure;Samples;Min_cycle;Max_cycle;Signal;HPM_P1;HPM_P2
2021/05/31 00:01:26;;;;;;;0.00;0.00;;;16.00;92.30;;;;;;5072541;28;20067;-58
2021/05/31 00:03:54;;;;;;;0.00;0.00;;;16.00;93.00;;;;;;5057397;28;20028;-58
2021/05/31 00:06:20;;;;;;;0.00;0.00;;;15.90;94.30;;;;;;5071658;28;20036;-58
2021/05/31 00:08:46;;;;;;;0.00;0.00;;;15.80;94.30;;;;;;5058321;28;20123;-58
2021/05/31 00:11:12;;;;;;;0.00;0.00;;;15.80;94.80;;;;;;5071662;28;20028;-58
2021/05/31 00:13:37;;;;;;;0.00;0.00;;;15.70;94.60;;;;;;5071562;28;20039;-58
2021/05/31 00:16:03;;;;;;;0.00;0.00;;;15.70;95.70;;;;;;5062459;28;20456;-58
2021/05/31 00:18:29;;;;;;;0.00;0.00;;;15.60;95.40;;;;;;5062693;28;20032;-58
2021/05/31 00:20:55;;;;;;;0.00;0.00;;;15.50;95.60;;;;;;5062552;28;20028;-58
2021/05/31 00:23:23;;;;;;;0.00;0.00;;;15.40;96.10;;;;;;5053605;28;20036;-58
2021/05/31 00:25:49;;;;;;;0.00;0.00;;;15.40;96.60;;;;;;5071622;28;20039;-57
2021/05/31 00:28:17;;;;;;;0.07;0.07;;;15.30;96.80;;;;;;5071097;28;20029;-58
2021/05/31 00:30:45;;;;;;;0.00;0.00;;;15.20;97.40;;;;;;5072361;28;20040;-58
2021/05/31 00:33:11;;;;;;;0.00;0.00;;;15.10;97.80;;;;;;5071386;28;20039;-58
2021/05/31 00:35:37;;;;;;;0.00;0.00;;;15.00;98.60;;;;;;5087141;28;20063;-58
2021/05/31 00:38:03;;;;;;;0.10;0.10;;;15.00;98.70;;;;;;5070983;28;20039;-58
2021/05/31 00:40:31;;;;;;;0.00;0.00;;;15.00;99.10;;;;;;5071564;28;20025;-58
2021/05/31 00:42:57;;;;;;;0.00;0.00;;;15.00;99.20;;;;;;5070820;28;20129;-59
2021/05/31 00:45:23;;;;;;;0.03;0.03;;;15.00;99.90;;;;;;5071697;28;20050;-58
2021/05/31 00:47:54;;;;;;;0.00;0.00;;;14.90;99.90;;;;;;5071213;28;20070;-58
2021/05/31 00:50:24;;;;;;;0.10;0.10;;;14.80;99.90;;;;;;5071378;28;20047;-58
2021/05/31 00:52:53;;;;;;;0.10;0.10;;;14.70;99.90;;;;;;5070771;28;20037;-57
2021/05/31 00:55:18;;;;;;;0.00;0.00;;;14.70;99.90;;;;;;5071811;28;20624;-58
2021/05/31 00:57:44;;;;;;;0.00;0.00;;;14.60;99.90;;;;;;5053189;28;20033;-58
2021/05/31 01:00:10;;;;;;;0.00;0.00;;;14.60;99.90;;;;;;5071036;28;20048;-60
2021/05/31 01:02:39;;;;;;;0.00;0.00;;;14.50;99.90;;;;;;5071503;28;20048;-58
2021/05/31 01:05:08;;;;;;;0.00;0.00;;;14.60;99.90;;;;;;5071197;28;20032;-58
2021/05/31 01:07:43;;;;;;;0.00;0.00;;;14.60;99.90;;;;;;5054894;28;20024;-58
2021/05/31 01:10:34;;;;;;;0.10;0.10;;;14.50;99.90;;;;;;5071073;28;20032;-58
2021/05/31 01:13:11;;;;;;;0.00;0.00;;;14.50;99.90;;;;;;5071097;28;20036;-58
2021/05/31 01:16:06;;;;;;;0.10;0.10;;;14.40;99.90;;;;;;5062699;28;20097;-58
2021/05/31 01:18:42;;;;;;;0.00;0.00;;;14.40;99.90;;;;;;5070946;28;20035;-58
2021/05/31 01:21:36;;;;;;;0.00;0.00;;;14.40;99.90;;;;;;5070753;28;20052;-57
2021/05/31 01:24:21;;;;;;;0.00;0.00;;;14.40;99.90;;;;;;5071248;28;20024;-58
2021/05/31 01:27:07;;;;;;;0.00;0.00;;;14.40;99.90;;;;;;5057397;28;20184;-58
2021/05/31 01:29:33;;;;;;;0.00;0.00;;;14.30;99.90;;;;;;5087054;28;20109;-57
2021/05/31 01:32:06;;;;;;;0.00;0.00;;;14.30;99.90;;;;;;5071330;28;20041;-57
2021/05/31 01:34:34;;;;;;;0.03;0.03;;;14.20;99.90;;;;;;5073119;28;20039;-57
2021/05/31 01:37:14;;;;;;;0.00;0.00;;;14.00;99.90;;;;;;5074996;28;20023;-58
2021/05/31 01:39:44;;;;;;;0.00;0.00;;;14.00;99.90;;;;;;5075299;28;20032;-58
2021/05/31 01:42:10;;;;;;;0.00;0.00;;;13.90;99.90;;;;;;5074445;28;20031;-58
2021/05/31 01:44:37;;;;;;;0.00;0.00;;;13.80;99.90;;;;;;5075492;28;20035;-57
2021/05/31 01:47:03;;;;;;;0.00;0.00;;;13.70;99.90;;;;;;5073576;28;20035;-58
2021/05/31 01:49:29;;;;;;;0.00;0.00;;;13.60;99.90;;;;;;5073704;28;20036;-58
2021/05/31 01:51:56;;;;;;;0.00;0.00;;;13.50;99.90;;;;;;5073883;28;20071;-58
2021/05/31 01:54:24;;;;;;;0.00;0.00;;;13.50;99.90;;;;;;5073553;28;20050;-58
2021/05/31 01:56:51;;;;;;;0.00;0.00;;;13.40;99.90;;;;;;5072771;28;20311;-57
2021/05/31 01:59:18;;;;;;;3.83;3.50;;;13.40;99.90;;;;;;5053657;28;20055;-57
2021/05/31 02:01:48;;;;;;;0.30;0.30;;;13.40;99.90;;;;;;5073572;28;20024;-58
2021/05/31 02:04:19;;;;;;;0.00;0.00;;;13.40;99.90;;;;;;5074187;28;20037;-58
2021/05/31 02:06:50;;;;;;;0.03;0.03;;;13.40;99.90;;;;;;5064323;28;20050;-58
2021/05/31 02:09:18;;;;;;;0.00;0.00;;;13.30;99.90;;;;;;5074096;28;20515;-58
2021/05/31 02:12:11;;;;;;;0.00;0.00;;;13.30;99.90;;;;;;5072435;28;20186;-58
2021/05/31 02:14:51;;;;;;;0.08;0.08;;;13.40;99.90;;;;;;5060283;28;20117;-57
2021/05/31 02:17:30;;;;;;;0.00;0.00;;;13.40;99.90;;;;;;5073482;28;20067;-58
2021/05/31 02:20:03;;;;;;;0.00;0.00;;;13.40;99.90;;;;;;5074188;28;20371;-57
2021/05/31 02:22:32;;;;;;;0.10;0.10;;;13.40;99.90;;;;;;5058137;28;20128;-57
2021/05/31 02:24:57;;;;;;;0.00;0.00;;;13.30;99.90;;;;;;5073470;28;20152;-58
2021/05/31 02:27:24;;;;;;;0.00;0.00;;;13.20;99.90;;;;;;5073893;28;20039;-57
2021/05/31 02:29:50;;;;;;;0.10;0.10;;;13.10;99.90;;;;;;5073491;28;20042;-58
2021/05/31 02:32:15;;;;;;;0.30;0.30;;;13.00;99.90;;;;;;5073903;28;20032;-58
2021/05/31 02:34:46;;;;;;;0.10;0.10;;;13.00;99.90;;;;;;5060180;28;20032;-57
2021/05/31 02:37:14;;;;;;;0.00;0.00;;;13.00;99.90;;;;;;5073145;28;20031;-58
2021/05/31 02:39:40;;;;;;;0.00;0.00;;;13.00;99.90;;;;;;5072620;28;20024;-57
2021/05/31 02:42:06;;;;;;;0.00;0.00;;;12.90;99.90;;;;;;5064315;28;20055;-57
2021/05/31 02:44:32;;;;;;;0.00;0.00;;;12.90;99.90;;;;;;5076279;28;20084;-58
2021/05/31 02:47:02;;;;;;;0.10;0.10;;;12.80;99.90;;;;;;5088502;27;20149;-57
2021/05/31 02:49:30;;;;;;;0.00;0.00;;;12.80;99.90;;;;;;5073403;28;20931;-58
2021/05/31 02:51:56;;;;;;;0.00;0.00;;;12.70;99.90;;;;;;5072708;28;20726;-57
2021/05/31 02:54:22;;;;;;;0.00;0.00;;;12.70;99.90;;;;;;5059424;28;20036;-57
2021/05/31 02:56:47;;;;;;;0.00;0.00;;;12.60;99.90;;;;;;5053299;28;20043;-58
2021/05/31 02:59:15;;;;;;;0.00;0.00;;;12.50;99.90;;;;;;5088103;27;20408;-58
2021/05/31 03:01:41;;;;;;;0.00;0.00;;;12.50;99.90;;;;;;5073062;28;20101;-57
2021/05/31 03:04:09;;;;;;;0.00;0.00;;;12.50;99.90;;;;;;5073158;28;20052;-58
2021/05/31 03:06:37;;;;;;;0.00;0.00;;;12.40;99.90;;;;;;5054371;28;20036;-59
2021/05/31 03:09:07;;;;;;;0.00;0.00;;;12.40;99.90;;;;;;5072820;28;20067;-57
2021/05/31 03:11:35;;;;;;;0.00;0.00;;;12.30;99.90;;;;;;5057656;28;20126;-57
2021/05/31 03:14:01;;;;;;;0.00;0.00;;;12.30;99.90;;;;;;5072122;28;20050;-58
2021/05/31 03:16:28;;;;;;;0.00;0.00;;;12.30;99.90;;;;;;5073045;28;20033;-58
2021/05/31 03:18:57;;;;;;;0.00;0.00;;;12.20;99.90;;;;;;5071971;28;20035;-58
2021/05/31 03:21:25;;;;;;;0.10;0.10;;;12.30;99.90;;;;;;5056048;28;20036;-59
2021/05/31 03:23:50;;;;;;;0.00;0.00;;;12.30;99.90;;;;;;5088193;27;20036;-59
2021/05/31 03:26:16;;;;;;;0.00;0.00;;;12.30;99.90;;;;;;5072881;28;20486;-58
2021/05/31 03:28:41;;;;;;;0.00;0.00;;;12.40;99.90;;;;;;5072599;28;20028;-58
2021/05/31 03:31:09;;;;;;;0.00;0.00;;;12.30;99.90;;;;;;5054394;28;20583;-58
2021/05/31 03:33:37;;;;;;;0.00;0.00;;;12.30;99.90;;;;;;5071920;28;20100;-57
2021/05/31 03:36:04;;;;;;;0.00;0.00;;;12.30;99.90;;;;;;5058654;28;20025;-57
2021/05/31 03:38:32;;;;;;;0.00;0.00;;;12.20;99.90;;;;;;5071464;28;20059;-58
2021/05/31 03:40:57;;;;;;;0.00;0.00;;;12.20;99.90;;;;;;5063169;28;20028;-57
2021/05/31 03:43:25;;;;;;;0.00;0.00;;;12.20;99.90;;;;;;5058720;28;20097;-58
2021/05/31 03:45:51;;;;;;;0.00;0.00;;;12.20;99.90;;;;;;5071765;28;20029;-57
2021/05/31 03:48:19;;;;;;;0.00;0.00;;;12.20;99.90;;;;;;5063167;28;20038;-57
2021/05/31 03:50:44;;;;;;;0.00;0.00;;;12.10;99.90;;;;;;5071695;28;20036;-57
2021/05/31 03:53:13;;;;;;;0.00;0.00;;;12.10;99.90;;;;;;5072096;28;20541;-57
2021/05/31 03:55:39;;;;;;;0.00;0.00;;;12.10;99.90;;;;;;5071578;28;20025;-57
2021/05/31 03:58:04;;;;;;;0.00;0.00;;;12.10;99.90;;;;;;5057397;28;20447;-57
2021/05/31 04:00:30;;;;;;;0.00;0.00;;;12.00;99.90;;;;;;5059693;28;20045;-57
2021/05/31 04:02:56;;;;;;;0.00;0.00;;;12.00;99.90;;;;;;5051383;28;20568;-58
2021/05/31 04:05:24;;;;;;;0.00;0.00;;;12.10;99.90;;;;;;5052820;28;20094;-57
2021/05/31 04:13:23;;;;;;;0.00;0.00;;;12.10;99.90;;;;;;5051730;28;20094;-58
2021/05/31 04:15:49;;;;;;;0.00;0.00;;;12.10;99.90;;;;;;5052073;28;20131;-58
2021/05/31 04:18:17;;;;;;;0.00;0.00;;;12.10;99.90;;;;;;5051419;28;20025;-57
2021/05/31 04:20:43;;;;;;;0.00;0.00;;;12.10;99.90;;;;;;5083516;28;20040;-57
2021/05/31 04:23:08;;;;;;;0.00;0.00;;;12.20;99.90;;;;;;5051029;28;20047;-57
2021/05/31 04:25:36;;;;;;;0.00;0.00;;;12.20;99.90;;;;;;5051269;28;20041;-57
2021/05/31 04:28:02;;;;;;;0.00;0.00;;;12.20;99.90;;;;;;5050725;28;20108;-57
2021/05/31 04:30:27;;;;;;;0.00;0.00;;;12.40;99.90;;;;;;5051895;28;20085;-57
2021/05/31 04:32:53;;;;;;;0.00;0.00;;;12.30;99.90;;;;;;5051085;28;20369;-57
2021/05/31 04:35:21;;;;;;;0.00;0.00;;;12.40;99.90;;;;;;5051374;28;20029;-57
2021/05/31 04:37:49;;;;;;;0.00;0.00;;;12.50;99.90;;;;;;5051310;28;20033;-57
2021/05/31 04:40:15;;;;;;;0.10;0.10;;;12.50;99.90;;;;;;5051068;28;20036;-58
2021/05/31 04:42:40;;;;;;;0.00;0.00;;;12.60;99.90;;;;;;5084071;28;20033;-57
2021/05/31 04:45:07;;;;;;;0.00;0.00;;;12.80;99.90;;;;;;5050262;28;20028;-57
2021/05/31 04:47:32;;;;;;;0.00;0.00;;;12.90;99.90;;;;;;5083653;28;20120;-58
2021/05/31 04:49:58;;;;;;;0.00;0.00;;;13.00;99.90;;;;;;5083523;28;20033;-57
2021/05/31 04:52:24;;;;;;;0.00;0.00;;;13.10;99.90;;;;;;5051117;28;20025;-57
2021/05/31 04:54:50;;;;;;;0.00;0.00;;;13.10;99.90;;;;;;5051791;28;20139;-57
2021/05/31 04:57:16;;;;;;;0.00;0.00;;;13.20;99.90;;;;;;5050799;28;20040;-57
2021/05/31 04:59:44;;;;;;;0.00;0.00;;;13.20;99.90;;;;;;5058189;28;20053;-57
2021/05/31 05:02:09;;;;;;;0.00;0.00;;;13.30;99.90;;;;;;5055800;28;20051;-57
2021/05/31 05:04:35;;;;;;;0.00;0.00;;;13.40;99.90;;;;;;5089093;28;20579;-57
2021/05/31 05:07:01;;;;;;;0.00;0.00;;;13.50;99.90;;;;;;5062033;28;20361;-57
2021/05/31 05:09:26;;;;;;;0.00;0.00;;;13.60;99.90;;;;;;5073149;28;20181;-57
2021/05/31 05:11:52;;;;;;;0.00;0.00;;;13.70;99.90;;;;;;5075135;28;20116;-57
2021/05/31 05:14:22;;;;;;;0.00;0.00;;;13.70;99.90;;;;;;5075351;28;20059;-58
2021/05/31 05:16:49;;;;;;;0.00;0.00;;;13.80;99.90;;;;;;5090783;27;20031;-57
2021/05/31 05:19:17;;;;;;;0.00;0.00;;;14.00;99.90;;;;;;5074671;28;20024;-58
2021/05/31 05:21:47;;;;;;;0.00;0.00;;;14.20;99.90;;;;;;5075538;28;20027;-59
2021/05/31 05:24:15;;;;;;;0.00;0.00;;;14.40;99.90;;;;;;5065460;28;20517;-59
2021/05/31 05:26:41;;;;;;;0.00;0.00;;;14.60;99.90;;;;;;5074435;28;20107;-58
2021/05/31 05:29:07;;;;;;;0.00;0.00;;;14.60;99.90;;;;;;5074082;28;20051;-57
2021/05/31 05:31:32;;;;;;;0.00;0.00;;;14.60;99.90;;;;;;5059841;28;20046;-58
2021/05/31 05:34:05;;;;;;;0.00;0.00;;;14.60;99.90;;;;;;5074743;28;20463;-58
2021/05/31 05:36:49;;;;;;;0.00;0.00;;;14.60;99.90;;;;;;5075344;28;20032;-58
2021/05/31 05:47:47;;;;;;;0.00;0.00;;;14.70;99.90;;;;;;5018396;28;20458;-57
2021/05/31 05:50:20;;;;;;;0.00;0.00;;;14.80;99.90;;;;;;5067102;28;20154;-57
2021/05/31 05:52:53;;;;;;;0.00;0.00;;;14.90;99.90;;;;;;5073983;28;20144;-57
2021/05/31 05:55:21;;;;;;;0.00;0.00;;;15.00;99.90;;;;;;5073245;28;20061;-57
2021/05/31 05:57:47;;;;;;;0.00;0.00;;;15.10;99.90;;;;;;5089826;27;20028;-58
2021/05/31 06:00:19;;;;;;;0.00;0.00;;;15.30;99.90;;;;;;5070323;28;20709;-58
2021/05/31 06:02:48;;;;;;;0.00;0.00;;;15.40;99.90;;;;;;5074155;28;20103;-57
2021/05/31 06:05:18;;;;;;;0.00;0.00;;;15.40;98.90;;;;;;5089301;27;20036;-58
2021/05/31 06:07:47;;;;;;;0.00;0.00;;;15.30;99.10;;;;;;5060165;28;20024;-57
2021/05/31 06:10:13;;;;;;;0.00;0.00;;;15.40;99.80;;;;;;5074527;28;20123;-57
2021/05/31 06:12:41;;;;;;;0.00;0.00;;;15.50;99.10;;;;;;5073448;28;20036;-58
2021/05/31 06:15:11;;;;;;;0.00;0.00;;;15.60;98.40;;;;;;5074434;28;20052;-58
2021/05/31 06:17:42;;;;;;;0.00;0.00;;;15.60;98.30;;;;;;5074910;28;20114;-58
2021/05/31 06:20:08;;;;;;;0.00;0.00;;;15.70;98.50;;;;;;5071782;28;21843;-58
2021/05/31 06:22:38;;;;;;;0.00;0.00;;;15.80;97.50;;;;;;5065004;28;20556;-58
2021/05/31 06:25:09;;;;;;;0.00;0.00;;;15.90;97.30;;;;;;5073451;28;20503;-58
2021/05/31 06:27:37;;;;;;;0.00;0.00;;;15.90;97.30;;;;;;5072288;28;20851;-59
2021/05/31 06:30:08;;;;;;;0.00;0.00;;;16.10;97.50;;;;;;5073556;28;20050;-58
2021/05/31 06:32:34;;;;;;;0.00;0.00;;;16.20;97.00;;;;;;5054522;28;20046;-58
2021/05/31 06:35:00;;;;;;;0.00;0.00;;;16.30;96.80;;;;;;5073032;28;20032;-58
2021/05/31 06:37:25;;;;;;;0.00;0.00;;;16.40;95.90;;;;;;5073953;28;20378;-58
2021/05/31 06:39:53;;;;;;;0.00;0.00;;;16.50;96.60;;;;;;5064874;28;20449;-58
2021/05/31 06:42:19;;;;;;;0.00;0.00;;;16.60;95.40;;;;;;5072725;28;20024;-58
2021/05/31 06:44:45;;;;;;;0.00;0.00;;;16.70;95.10;;;;;;5074700;28;20456;-58
2021/05/31 06:47:13;;;;;;;0.00;0.00;;;16.80;94.40;;;;;;5073487;28;20457;-58
2021/05/31 06:49:40;;;;;;;0.00;0.00;;;17.00;94.10;;;;;;5073150;28;20028;-58
2021/05/31 06:52:06;;;;;;;0.00;0.00;;;17.00;94.10;;;;;;5073812;28;20078;-58
2021/05/31 06:54:32;;;;;;;0.00;0.00;;;17.10;94.10;;;;;;5073269;28;20169;-58
2021/05/31 06:56:58;;;;;;;0.00;0.00;;;17.10;93.70;;;;;;5072939;28;20036;-58
2021/05/31 06:59:25;;;;;;;0.00;0.00;;;17.10;93.20;;;;;;5073014;28;20126;-58
2021/05/31 07:01:52;;;;;;;0.00;0.00;;;17.10;93.50;;;;;;5064244;28;20028;-58
2021/05/31 07:04:18;;;;;;;0.00;0.00;;;17.20;93.10;;;;;;5072721;28;20032;-58
2021/05/31 07:06:45;;;;;;;0.00;0.00;;;17.20;93.20;;;;;;5073039;28;20021;-58
2021/05/31 07:09:11;;;;;;;0.00;0.00;;;17.30;93.00;;;;;;5072813;28;20624;-58
2021/05/31 07:11:42;;;;;;;0.00;0.00;;;17.30;93.20;;;;;;5053220;28;20329;-58
2021/05/31 07:14:11;;;;;;;0.00;0.00;;;17.40;93.40;;;;;;5073072;28;20119;-59
2021/05/31 07:16:39;;;;;;;0.00;0.00;;;17.50;93.50;;;;;;5072280;28;20027;-59
2021/05/31 07:19:07;;;;;;;0.00;0.00;;;17.50;91.90;;;;;;5071850;28;20024;-58
2021/05/31 07:21:35;;;;;;;0.00;0.00;;;17.50;92.10;;;;;;5073258;28;20033;-58
2021/05/31 07:24:01;;;;;;;0.00;0.00;;;17.50;92.40;;;;;;5073324;28;20032;-59
2021/05/31 07:26:29;;;;;;;0.00;0.00;;;17.50;91.70;;;;;;5072231;28;20043;-58
2021/05/31 07:28:54;;;;;;;0.00;0.00;;;17.60;92.10;;;;;;5072979;28;20109;-58
2021/05/31 07:31:20;;;;;;;0.00;0.00;;;17.60;92.40;;;;;;5054753;28;20035;-58
2021/05/31 07:33:45;;;;;;;0.00;0.00;;;17.70;91.80;;;;;;5071315;28;20158;-58
2021/05/31 07:36:11;;;;;;;0.00;0.00;;;17.80;91.70;;;;;;5063195;28;20122;-58
2021/05/31 07:38:39;;;;;;;0.00;0.00;;;17.90;91.70;;;;;;5072239;28;20449;-57
2021/05/31 07:41:07;;;;;;;0.00;0.00;;;18.00;91.20;;;;;;5053830;28;20024;-58
2021/05/31 07:43:33;;;;;;;0.00;0.00;;;17.90;90.10;;;;;;5072025;28;20036;-58
2021/05/31 07:45:58;;;;;;;0.00;0.00;;;17.90;90.10;;;;;;5063187;28;20471;-58
2021/05/31 07:48:24;;;;;;;0.00;0.00;;;17.90;89.90;;;;;;5068782;28;20039;-59
2021/05/31 07:50:53;;;;;;;0.00;0.00;;;17.90;88.30;;;;;;5072314;28;20032;-58
2021/05/31 07:53:21;;;;;;;0.00;0.00;;;18.00;88.70;;;;;;5072106;28;20412;-58
2021/05/31 07:55:47;;;;;;;0.00;0.00;;;18.10;88.40;;;;;;5072374;28;20027;-58
2021/05/31 07:58:13;;;;;;;0.00;0.00;;;18.20;86.60;;;;;;5087636;27;20039;-57
2021/05/31 08:00:39;;;;;;;0.00;0.00;;;18.30;84.70;;;;;;5071845;28;20043;-58
2021/05/31 08:03:05;;;;;;;0.00;0.00;;;18.40;86.60;;;;;;5070988;28;20024;-57
2021/05/31 08:05:30;;;;;;;0.00;0.00;;;18.50;84.80;;;;;;5062581;28;20042;-58
2021/05/31 08:07:58;;;;;;;0.00;0.00;;;18.60;84.70;;;;;;5072215;28;20036;-58
2021/05/31 08:10:24;;;;;;;0.00;0.00;;;18.70;83.50;;;;;;5071852;28;20038;-57
2021/05/31 08:12:51;;;;;;;0.00;0.00;;;18.70;83.10;;;;;;5071551;28;20028;-58
2021/05/31 08:15:22;;;;;;;0.00;0.00;;;18.70;84.00;;;;;;5072182;28;20113;-58
2021/05/31 08:17:47;;;;;;;0.00;0.00;;;18.80;83.40;;;;;;5072118;28;20108;-58
2021/05/31 08:20:13;;;;;;;0.00;0.00;;;18.70;81.50;;;;;;5071880;28;20039;-59
2021/05/31 08:22:41;;;;;;;0.00;0.00;;;18.80;81.70;;;;;;5071373;28;20158;-59
2021/05/31 08:25:09;;;;;;;0.00;0.00;;;18.90;82.10;;;;;;5071657;28;20035;-58
2021/05/31 08:27:39;;;;;;;0.00;0.00;;;19.00;81.70;;;;;;5071580;28;20059;-57
2021/05/31 08:30:08;;;;;;;0.00;0.00;;;19.00;79.30;;;;;;5071863;28;20028;-58
2021/05/31 08:32:34;;;;;;;0.00;0.00;;;19.00;79.70;;;;;;5071200;28;20427;-57
2021/05/31 08:34:59;;;;;;;0.00;0.00;;;19.10;76.90;;;;;;5070960;28;20101;-58
2021/05/31 08:37:25;;;;;;;0.00;0.00;;;19.20;77.20;;;;;;5071696;28;20032;-58
2021/05/31 08:39:53;;;;;;;0.00;0.00;;;19.30;75.50;;;;;;5070536;28;20031;-58
2021/05/31 08:42:19;;;;;;;0.00;0.00;;;19.40;74.10;;;;;;5062541;28;20035;-58
2021/05/31 08:44:45;;;;;;;0.08;0.08;;;19.50;71.30;;;;;;5074147;28;20089;-58
2021/05/31 08:47:12;;;;;;;0.00;0.00;;;19.60;64.60;;;;;;5076017;28;20039;-58
2021/05/31 08:49:40;;;;;;;0.08;0.08;;;19.60;68.40;;;;;;5077801;28;20039;-58
2021/05/31 08:52:10;;;;;;;0.20;0.20;;;19.70;69.20;;;;;;5076309;28;20632;-58
2021/05/31 08:54:38;;;;;;;0.00;0.00;;;19.80;68.10;;;;;;5066300;28;20419;-58
2021/05/31 08:57:04;;;;;;;0.00;0.00;;;19.80;67.60;;;;;;5074439;28;20028;-58
2021/05/31 08:59:34;;;;;;;0.00;0.00;;;19.80;66.00;;;;;;5074740;28;20055;-57
2021/05/31 09:02:01;;;;;;;0.00;0.00;;;19.70;65.60;;;;;;5075000;28;20464;-58
2021/05/31 09:04:28;;;;;;;0.10;0.10;;;19.70;65.70;;;;;;5058030;28;20040;-58
2021/05/31 09:06:58;;;;;;;0.00;0.00;;;19.70;66.70;;;;;;5058015;28;20040;-58
2021/05/31 09:09:40;;;;;;;0.00;0.00;;;19.70;66.30;;;;;;5075916;28;20028;-58
2021/05/31 09:12:09;;;;;;;0.10;0.10;;;19.70;68.10;;;;;;5075759;28;20166;-59
2021/05/31 09:14:35;;;;;;;0.00;0.00;;;19.80;68.10;;;;;;5075407;28;20045;-58
2021/05/31 09:17:01;;;;;;;0.00;0.00;;;20.00;67.60;;;;;;5075086;28;20701;-58
2021/05/31 09:19:26;;;;;;;0.00;0.00;;;20.00;67.30;;;;;;5074884;28;20085;-58
2021/05/31 09:21:54;;;;;;;0.10;0.10;;;20.20;67.40;;;;;;5074884;28;20115;-58
2021/05/31 09:24:24;;;;;;;0.00;0.00;;;20.30;66.80;;;;;;5074486;28;20036;-58
2021/05/31 09:26:56;;;;;;;0.00;0.00;;;20.50;64.50;;;;;;5074980;28;20033;-58
2021/05/31 09:29:22;;;;;;;0.00;0.00;;;20.50;62.70;;;;;;5075169;28;20278;-58
2021/05/31 09:32:05;;;;;;;0.00;0.00;;;20.50;63.20;;;;;;5074469;28;20036;-58
2021/05/31 09:34:31;;;;;;;0.05;0.05;;;20.50;61.20;;;;;;5074123;28;20133;-58
2021/05/31 09:37:02;;;;;;;0.10;0.10;;;20.50;61.70;;;;;;5074795;28;20112;-58
2021/05/31 09:39:37;;;;;;;0.10;0.10;;;20.60;61.10;;;;;;5090233;27;20024;-58
2021/05/31 09:42:06;;;;;;;0.00;0.00;;;20.50;60.90;;;;;;5075526;28;20028;-58
2021/05/31 09:44:34;;;;;;;0.00;0.00;;;20.50;60.90;;;;;;5074198;28;20126;-58
2021/05/31 09:47:02;;;;;;;0.03;0.03;;;20.60;62.20;;;;;;5073535;28;20028;-58
2021/05/31 09:49:28;;;;;;;0.00;0.00;;;20.60;62.40;;;;;;5074429;28;20121;-57
2021/05/31 09:52:09;;;;;;;0.00;0.00;;;20.80;62.90;;;;;;5074476;28;20107;-59
2021/05/31 09:54:42;;;;;;;0.10;0.10;;;21.00;62.70;;;;;;5074528;28;20031;-58
2021/05/31 09:57:19;;;;;;;0.00;0.00;;;21.20;61.90;;;;;;5073345;28;20719;-58
2021/05/31 09:59:47;;;;;;;0.00;0.00;;;21.40;61.10;;;;;;5074446;28;20342;-58
2021/05/31 10:02:17;;;;;;;0.10;0.10;;;21.70;60.20;;;;;;5089319;27;20073;-58
2021/05/31 10:09:58;;;;;;;0.05;0.05;;;22.20;59.10;;;;;;5073886;28;20178;-59
2021/05/31 10:12:25;;;;;;;0.00;0.00;;;22.30;58.80;;;;;;5073774;28;20132;-59
2021/05/31 10:14:55;;;;;;;0.00;0.00;;;22.40;57.90;;;;;;5072905;28;20468;-59
2021/05/31 10:17:23;;;;;;;0.00;0.00;;;22.40;56.60;;;;;;5073956;28;20032;-59
2021/05/31 10:19:52;;;;;;;0.00;0.00;;;22.50;56.70;;;;;;5073005;28;20041;-58
2021/05/31 10:22:21;;;;;;;0.00;0.00;;;22.60;57.40;;;;;;5073244;28;20112;-58
2021/05/31 10:24:50;;;;;;;0.00;0.00;;;22.90;57.70;;;;;;5072878;28;20079;-58
2021/05/31 10:27:18;;;;;;;0.00;0.00;;;23.10;55.40;;;;;;5072929;28;20408;-58
2021/05/31 10:29:44;;;;;;;0.00;0.00;;;23.00;56.00;;;;;;5073287;28;20024;-58
2021/05/31 10:32:13;;;;;;;0.00;0.00;;;23.00;55.50;;;;;;5073135;28;20294;-58
2021/05/31 10:34:52;;;;;;;0.00;0.00;;;22.90;55.50;;;;;;5073295;28;20031;-58
2021/05/31 10:37:26;;;;;;;0.00;0.00;;;22.80;55.30;;;;;;5072908;28;20032;-58
2021/05/31 10:40:11;;;;;;;0.00;0.00;;;22.90;55.90;;;;;;5072863;28;20034;-58
2021/05/31 10:42:49;;;;;;;0.00;0.00;;;23.00;54.70;;;;;;5074415;28;20032;-59
2021/05/31 10:45:19;;;;;;;0.00;0.00;;;23.00;54.10;;;;;;5073136;28;20115;-59
2021/05/31 10:48:06;;;;;;;0.00;0.00;;;23.10;55.80;;;;;;5072184;28;20417;-58
2021/05/31 10:50:37;;;;;;;0.00;0.00;;;23.10;54.30;;;;;;5073005;28;20028;-58
2021/05/31 10:53:07;;;;;;;0.00;0.00;;;23.20;55.60;;;;;;5072072;28;20365;-58
2021/05/31 10:55:47;;;;;;;0.03;0.03;;;23.40;55.60;;;;;;5073200;28;20044;-59
2021/05/31 10:58:17;;;;;;;0.00;0.00;;;23.60;53.80;;;;;;5073025;28;20017;-58
2021/05/31 11:00:56;;;;;;;0.00;0.00;;;23.70;54.10;;;;;;5072421;28;20177;-58
2021/05/31 11:03:24;;;;;;;0.00;0.00;;;23.80;55.70;;;;;;5072362;28;20024;-59
2021/05/31 11:05:55;;;;;;;0.00;0.00;;;23.90;53.70;;;;;;5072735;28;20081;-59
2021/05/31 11:08:30;;;;;;;0.00;0.00;;;24.00;55.00;;;;;;5072182;28;20032;-58
2021/05/31 11:11:02;;;;;;;0.00;0.00;;;24.30;54.60;;;;;;5072648;28;20310;-58
2021/05/31 11:13:29;;;;;;;0.00;0.00;;;24.50;52.90;;;;;;5072558;28;20028;-60
2021/05/31 11:16:11;;;;;;;0.00;0.00;;;24.40;52.50;;;;;;5072926;28;20090;-59
2021/05/31 11:18:45;;;;;;;0.00;0.00;;;24.60;51.80;;;;;;5072429;28;20043;-58
2021/05/31 11:21:32;;;;;;;0.00;0.00;;;24.70;52.20;;;;;;5072406;28;20543;-58
2021/05/31 11:23:59;;;;;;;0.00;0.00;;;24.80;50.90;;;;;;5062700;28;20039;-58
2021/05/31 11:26:34;;;;;;;0.00;0.00;;;24.60;51.30;;;;;;5069234;28;20055;-58
2021/05/31 11:29:00;;;;;;;0.00;0.00;;;24.40;51.30;;;;;;5071610;28;20033;-58
2021/05/31 11:31:26;;;;;;;0.00;0.00;;;24.50;51.80;;;;;;5087566;27;20459;-58
2021/05/31 11:33:56;;;;;;;0.00;0.00;;;24.60;50.80;;;;;;5071615;28;20143;-58
2021/05/31 11:36:38;;;;;;;0.00;0.00;;;24.60;50.60;;;;;;5053732;28;20047;-59
2021/05/31 11:39:09;;;;;;;0.00;0.00;;;25.00;51.40;;;;;;5071517;28;20448;-58
2021/05/31 11:41:49;;;;;;;0.00;0.00;;;26.50;48.40;;;;;;5071991;28;20088;-58
2021/05/31 11:44:25;;;;;;;0.00;0.00;;;28.00;46.20;;;;;;5071505;28;20051;-59
2021/05/31 11:46:57;;;;;;;0.00;0.00;;;28.10;45.70;;;;;;5058288;28;20027;-58
2021/05/31 11:49:25;;;;;;;0.00;0.00;;;27.50;45.80;;;;;;5072395;28;20133;-58
2021/05/31 11:52:08;;;;;;;0.00;0.00;;;28.50;45.60;;;;;;5071814;28;20036;-59
2021/05/31 11:54:37;;;;;;;0.00;0.00;;;29.30;43.00;;;;;;5071298;28;20036;-59
2021/05/31 11:57:04;;;;;;;0.00;0.00;;;30.50;42.90;;;;;;5071172;28;20081;-59
2021/05/31 11:59:37;;;;;;;0.00;0.00;;;31.70;41.20;;;;;;5071237;28;20036;-59
2021/05/31 12:02:09;;;;;;;0.00;0.00;;;33.40;39.10;;;;;;5071504;28;20057;-59
2021/05/31 12:04:36;;;;;;;0.00;0.00;;;34.40;36.80;;;;;;5071237;28;20031;-58
2021/05/31 12:07:05;;;;;;;0.00;0.00;;;33.80;37.50;;;;;;5071522;28;20020;-59
2021/05/31 12:09:31;;;;;;;0.00;0.00;;;32.80;37.90;;;;;;5072172;28;20024;-58
2021/05/31 12:11:59;;;;;;;0.00;0.00;;;31.60;38.50;;;;;;5071495;28;20020;-59
2021/05/31 12:14:29;;;;;;;0.00;0.00;;;30.60;40.20;;;;;;5061903;28;20032;-59
2021/05/31 12:17:03;;;;;;;0.00;0.00;;;30.20;41.00;;;;;;5062692;28;20103;-58
2021/05/31 12:19:31;;;;;;;0.00;0.00;;;30.00;40.90;;;;;;5055256;28;21826;-58
2021/05/31 12:21:58;;;;;;;0.00;0.00;;;30.70;40.40;;;;;;5070811;28;20052;-59
2021/05/31 12:24:28;;;;;;;0.00;0.00;;;31.80;38.80;;;;;;5086925;28;20043;-59
2021/05/31 12:26:56;;;;;;;0.00;0.00;;;31.90;38.80;;;;;;5070666;28;20036;-60
2021/05/31 12:29:37;;;;;;;0.00;0.00;;;31.70;38.70;;;;;;5053063;28;20040;-59
2021/05/31 12:32:06;;;;;;;;;;;32.90;38.30;;;;;;5072117;28;20437;-59
2021/05/31 12:34:35;;;;;;;0.00;0.00;;;32.90;37.30;;;;;;5071454;28;20007;-60
2021/05/31 12:37:06;;;;;;;0.00;0.00;;;31.50;38.20;;;;;;5087139;28;20028;-59
2021/05/31 12:39:32;;;;;;;0.00;0.00;;;29.80;40.40;;;;;;5071481;28;20671;-59
2021/05/31 12:42:07;;;;;;;0.00;0.00;;;28.80;41.60;;;;;;5071256;28;20028;-59
2021/05/31 12:44:32;;;;;;;0.00;0.00;;;28.10;42.50;;;;;;5071335;28;20060;-59
2021/05/31 12:47:13;;;;;;;0.00;0.00;;;27.60;44.10;;;;;;5071182;28;20138;-59
2021/05/31 12:49:50;;;;;;;0.00;0.00;;;27.00;43.20;;;;;;5070941;28;20515;-58
2021/05/31 12:52:30;;;;;;;0.00;0.00;;;27.20;45.10;;;;;;5071349;28;20044;-59
2021/05/31 12:55:06;;;;;;;0.00;0.00;;;28.70;43.00;;;;;;5071165;28;20023;-59
2021/05/31 12:57:49;;;;;;;0.00;0.00;;;29.40;41.30;;;;;;5071557;28;20112;-59
2021/05/31 13:00:27;;;;;;;0.00;0.00;;;29.20;41.40;;;;;;5070982;28;20105;-58
2021/05/31 13:02:58;;;;;;;0.00;0.00;;;28.40;42.00;;;;;;5070934;28;20030;-58
2021/05/31 13:05:32;;;;;;;0.00;0.00;;;28.30;43.10;;;;;;5086414;28;20108;-59
2021/05/31 13:08:10;;;;;;;0.00;0.00;;;30.30;40.90;;;;;;5062243;28;20132;-59
2021/05/31 13:10:48;;;;;;;0.00;0.00;;;31.40;38.80;;;;;;5071551;28;20713;-58
2021/05/31 13:13:19;;;;;;;0.00;0.00;;;31.20;38.90;;;;;;5070994;28;20075;-58
2021/05/31 13:15:53;;;;;;;;;;;31.40;38.00;;;;;;5071510;28;20038;-58
2021/05/31 13:18:23;;;;;;;0.00;0.00;;;30.90;38.70;;;;;;5071234;28;20054;-58